Time;durP1;ratioP1;P1;durP2;ratioP2;P2;SDS_P1;SDS_P2;PMS_P1;PMS_P2;Temp;Humidity;BMP_temperature;BMP_pressure;BME280_temperature;BME280_humidity;BME280_pressure;Samples;Min_cycle;Max_cycle;Signal;HPM_P1;HPM_P2
2023/05/30 00:01:22;;;;;;;8.05;2.08;;;;;;;-142.75;100.00;78247.78;5028695;28;20033;-68
2023/05/30 00:03:48;;;;;;;7.50;1.90;;;;;;;-142.75;100.00;78243.84;5031475;28;20040;-68
2023/05/30 00:06:15;;;;;;;12.05;2.55;;;;;;;-142.75;100.00;78255.66;5028735;28;20029;-67
2023/05/30 00:08:42;;;;;;;10.35;1.88;;;;;;;-142.75;100.00;78249.75;5028615;28;20052;-67
2023/05/30 00:11:08;;;;;;;9.73;2.15;;;;;;;-142.75;100.00;78263.53;5044522;28;20083;-68
2023/05/30 00:13:34;;;;;;;14.35;2.65;;;;;;;-142.75;100.00;78259.59;5028516;28;20098;-68
2023/05/30 00:16:00;;;;;;;5.40;1.67;;;;;;;-142.75;100.00;78253.69;5028422;28;20514;-67
2023/05/30 00:18:34;;;;;;;8.45;1.60;;;;;;;-142.75;100.00;78257.63;5026982;28;20083;-68
2023/05/30 00:21:00;;;;;;;12.75;2.25;;;;;;;-142.75;100.00;78263.53;5027488;28;20119;-67
2023/05/30 00:23:28;;;;;;;10.20;1.75;;;;;;;-142.75;100.00;78267.47;5029696;28;20594;-68
2023/05/30 00:25:55;;;;;;;11.85;1.75;;;;;;;-142.75;100.00;78269.44;5028198;28;20070;-67
2023/05/30 00:28:22;;;;;;;8.32;2.47;;;;;;;-142.75;100.00;78281.25;5026890;28;20036;-68
2023/05/30 00:30:47;;;;;;;8.10;1.60;;;;;;;-142.75;100.00;78291.09;5028137;28;20623;-69
2023/05/30 00:33:13;;;;;;;15.77;2.20;;;;;;;-142.75;100.00;78285.19;5028365;28;20030;-68
2023/05/30 00:35:38;;;;;;;7.53;1.90;;;;;;;-142.75;100.00;78293.06;5027607;28;20029;-67
2023/05/30 00:38:04;;;;;;;10.05;2.17;;;;;;;-142.75;100.00;78306.88;5027992;28;20026;-67
2023/05/30 00:40:30;;;;;;;10.32;2.58;;;;;;;-142.75;100.00;78306.88;5027621;28;20029;-66
2023/05/30 00:42:55;;;;;;;8.75;1.80;;;;;;;-142.75;100.00;78300.97;5027955;28;20033;-68
2023/05/30 00:45:21;;;;;;;11.10;1.90;;;;;;;-142.75;100.00;78310.81;5026270;28;20041;-67
2023/05/30 00:47:47;;;;;;;10.05;2.38;;;;;;;-142.75;100.00;78314.75;5028131;28;20059;-67
2023/05/30 00:50:15;;;;;;;13.95;2.53;;;;;;;-142.75;100.00;78295.06;5027984;28;20038;-69
2023/05/30 00:52:41;;;;;;;11.43;1.65;;;;;;;-142.75;100.00;78287.16;5030420;28;20029;-67
2023/05/30 00:55:06;;;;;;;11.30;2.22;;;;;;;-142.75;100.00;78287.16;5027784;28;20040;-67
2023/05/30 00:57:33;;;;;;;11.88;1.85;;;;;;;-142.75;100.00;78302.94;5027285;28;20037;-67
2023/05/30 01:00:00;;;;;;;10.55;2.40;;;;;;;-142.75;100.00;78291.09;5027709;28;20526;-67
2023/05/30 01:02:26;;;;;;;7.50;1.80;;;;;;;-142.75;100.00;78295.06;5033228;28;20112;-67
2023/05/30 01:04:51;;;;;;;10.85;2.08;;;;;;;-142.75;100.00;78293.06;5027905;28;20125;-67
2023/05/30 01:07:16;;;;;;;9.00;2.67;;;;;;;-142.75;100.00;78291.09;5027268;28;20155;-67
2023/05/30 01:09:42;;;;;;;16.85;2.80;;;;;;;-142.75;100.00;78293.06;5027649;28;20627;-67
2023/05/30 01:12:20;;;;;;;10.95;2.38;;;;;;;-142.75;100.00;78287.16;5042872;28;20301;-67
2023/05/30 01:15:08;;;;;;;11.23;2.28;;;;;;;-142.75;100.00;78279.28;5027785;28;20018;-67
2023/05/30 01:17:51;;;;;;;5.40;1.70;;;;;;;-142.75;100.00;78279.28;5027681;28;20112;-67
2023/05/30 01:20:20;;;;;;;13.00;3.50;;;;;;;-142.75;100.00;78277.31;5027555;28;20056;-67
2023/05/30 01:23:04;;;;;;;8.02;2.35;;;;;;;-142.75;100.00;78271.41;5027878;28;20033;-67
2023/05/30 01:25:54;;;;;;;15.23;2.20;;;;;;;-142.75;100.00;78267.47;5042559;28;20514;-67
2023/05/30 01:28:21;;;;;;;11.70;2.35;;;;;;;-142.75;100.00;78267.47;5027397;28;20120;-65
2023/05/30 01:30:52;;;;;;;9.82;2.60;;;;;;;-142.75;100.00;78267.47;5027225;28;20033;-67
2023/05/30 01:33:19;;;;;;;13.02;2.15;;;;;;;-142.75;100.00;78271.41;5027459;28;20098;-66
2023/05/30 01:35:45;;;;;;;10.75;2.40;;;;;;;-142.75;100.00;78267.47;5027622;28;20045;-66
2023/05/30 01:38:11;;;;;;;6.78;1.85;;;;;;;-142.75;100.00;78273.38;5026157;28;20073;-66
2023/05/30 01:40:37;;;;;;;14.68;2.85;;;;;;;-142.75;100.00;78275.34;5027064;28;20471;-67
2023/05/30 01:43:17;;;;;;;9.00;1.92;;;;;;;-142.75;100.00;78269.44;5027277;28;20017;-66
2023/05/30 01:45:50;;;;;;;15.13;2.38;;;;;;;-142.75;100.00;78291.09;5026130;28;20029;-66
2023/05/30 01:48:27;;;;;;;10.27;2.42;;;;;;;-142.75;100.00;78281.25;5027312;28;20032;-66
2023/05/30 01:50:55;;;;;;;7.80;1.90;;;;;;;-142.75;100.00;78300.97;5026814;28;20120;-67
2023/05/30 01:53:33;;;;;;;11.68;2.20;;;;;;;-142.75;100.00;78300.97;5026989;28;20075;-65
2023/05/30 01:56:00;;;;;;;13.60;3.30;;;;;;;-142.75;100.00;78312.78;5026951;28;20041;-66
2023/05/30 01:58:27;;;;;;;9.43;2.33;;;;;;;-142.75;100.00;78308.84;5042002;28;20079;-67
2023/05/30 02:00:54;;;;;;;13.93;2.10;;;;;;;-142.75;100.00;78320.66;5025482;28;20490;-66
2023/05/30 02:03:23;;;;;;;11.23;2.72;;;;;;;-142.75;100.00;78314.75;5026817;28;20083;-64
2023/05/30 02:05:48;;;;;;;12.80;2.20;;;;;;;-142.75;100.00;78318.69;5026916;28;20095;-67
2023/05/30 02:08:14;;;;;;;7.40;2.67;;;;;;;-142.75;100.00;78322.63;5042105;28;20025;-67
2023/05/30 02:10:39;;;;;;;13.43;2.50;;;;;;;-142.75;100.00;78318.69;5026482;28;20090;-65
2023/05/30 02:13:04;;;;;;;12.77;2.80;;;;;;;-142.75;100.00;78346.25;5026877;28;20502;-66
2023/05/30 02:15:29;;;;;;;10.85;2.75;;;;;;;-142.75;100.00;78373.81;5026609;28;20025;-66
2023/05/30 02:17:55;;;;;;;11.18;2.75;;;;;;;-142.75;100.00;78362.00;5026709;28;20021;-66
2023/05/30 02:20:20;;;;;;;9.27;2.33;;;;;;;-142.75;100.00;78371.84;5057575;28;20021;-66
2023/05/30 02:22:46;;;;;;;7.88;2.22;;;;;;;-142.75;100.00;78373.81;5046724;28;20033;-67
2023/05/30 02:25:11;;;;;;;8.95;2.53;;;;;;;-142.75;100.00;78373.81;5046332;28;20025;-66
2023/05/30 02:27:36;;;;;;;7.50;2.42;;;;;;;-142.75;100.00;78375.78;5046232;28;20040;-67
2023/05/30 02:30:02;;;;;;;7.75;2.28;;;;;;;-142.75;100.00;78371.84;5046056;28;20103;-66
2023/05/30 02:32:27;;;;;;;10.40;2.43;;;;;;;-142.75;100.00;78369.88;5046424;28;20516;-66
2023/05/30 02:34:52;;;;;;;9.37;2.90;;;;;;;-142.75;100.00;78365.94;5046320;28;20082;-66
2023/05/30 02:37:18;;;;;;;13.98;3.00;;;;;;;-142.75;100.00;78375.78;5046376;28;20048;-66
2023/05/30 02:39:43;;;;;;;15.68;4.47;;;;;;;-142.75;100.00;78373.81;5045956;28;20116;-66
2023/05/30 02:42:08;;;;;;;14.10;2.60;;;;;;;-142.75;100.00;78362.00;5046074;28;20025;-66
2023/05/30 02:44:33;;;;;;;7.87;2.50;;;;;;;-142.75;100.00;78354.13;5046365;28;20463;-66
2023/05/30 02:46:59;;;;;;;11.97;2.90;;;;;;;-142.75;100.00;78354.13;5046085;28;20455;-66
2023/05/30 02:49:25;;;;;;;7.95;2.40;;;;;;;-142.75;100.00;78334.44;5046082;28;20055;-65
2023/05/30 02:51:50;;;;;;;11.98;3.13;;;;;;;-142.75;100.00;78342.31;5045972;28;20025;-66
2023/05/30 02:54:16;;;;;;;6.80;2.57;;;;;;;-142.75;100.00;78342.31;5046333;28;20393;-66
2023/05/30 02:56:41;;;;;;;13.00;2.67;;;;;;;-142.75;100.00;78348.22;5045990;28;20041;-66
2023/05/30 02:59:06;;;;;;;9.03;3.03;;;;;;;-142.75;100.00;78340.34;5050120;28;20080;-66
2023/05/30 03:01:32;;;;;;;7.43;2.28;;;;;;;-142.75;100.00;78346.25;5065205;28;20029;-67
2023/05/30 03:03:57;;;;;;;7.70;2.60;;;;;;;-142.75;100.00;78342.31;5050136;28;20033;-67
2023/05/30 03:06:24;;;;;;;7.75;2.47;;;;;;;-142.75;100.00;78342.31;5048670;28;20078;-67
2023/05/30 03:09:00;;;;;;;10.55;2.95;;;;;;;-142.75;100.00;78326.56;5030101;28;20083;-66
2023/05/30 03:11:26;;;;;;;10.63;2.65;;;;;;;-142.75;100.00;78320.66;5029558;28;20033;-66
2023/05/30 03:13:51;;;;;;;19.13;3.13;;;;;;;-142.75;100.00;78314.75;5029915;28;20138;-66
2023/05/30 03:16:17;;;;;;;10.85;2.60;;;;;;;-142.75;100.00;78302.94;5045347;28;20083;-66
2023/05/30 03:18:42;;;;;;;13.10;3.22;;;;;;;-142.75;100.00;78304.91;5030017;28;20112;-66
2023/05/30 03:21:09;;;;;;;12.32;2.65;;;;;;;-142.75;100.00;78299.00;5029733;28;20390;-67
2023/05/30 03:23:34;;;;;;;14.10;2.88;;;;;;;-142.75;100.00;78306.88;5029724;28;20148;-67
2023/05/30 03:26:00;;;;;;;9.05;2.60;;;;;;;-142.75;100.00;78259.59;5029454;28;20104;-67
2023/05/30 03:28:25;;;;;;;14.43;2.80;;;;;;;-142.75;100.00;78271.41;5029616;28;20022;-67
2023/05/30 03:30:51;;;;;;;8.38;2.25;;;;;;;-142.75;100.00;78263.53;5029384;28;20029;-65
2023/05/30 03:33:17;;;;;;;11.73;2.95;;;;;;;-142.75;100.00;78255.66;5029886;28;20067;-66
2023/05/30 03:35:42;;;;;;;10.20;2.47;;;;;;;-142.75;100.00;78255.66;5029591;28;20044;-66
2023/05/30 03:38:08;;;;;;;14.10;3.15;;;;;;;-142.75;100.00;78235.97;5029618;28;20051;-67
2023/05/30 03:40:33;;;;;;;10.90;2.38;;;;;;;-142.75;100.00;78241.88;5029163;28;20037;-66
2023/05/30 03:42:59;;;;;;;9.30;3.10;;;;;;;-142.75;100.00;78243.84;5029948;28;20036;-66
2023/05/30 03:45:24;;;;;;;13.50;2.83;;;;;;;-142.75;100.00;78243.84;5042266;28;20028;-66
2023/05/30 03:47:50;;;;;;;8.45;3.25;;;;;;;-142.75;100.00;78235.97;5049244;28;20123;-66
2023/05/30 03:50:15;;;;;;;14.18;3.20;;;;;;;-142.75;100.00;78247.78;5049205;28;20512;-66
2023/05/30 03:52:40;;;;;;;14.18;3.63;;;;;;;-142.75;100.00;78232.03;5049421;28;20494;-67
2023/05/30 03:55:06;;;;;;;7.72;2.88;;;;;;;-142.75;100.00;78216.28;5048963;28;20115;-66
2023/05/30 03:57:31;;;;;;;9.40;2.80;;;;;;;-142.75;100.00;78216.28;5047707;28;20017;-67
2023/05/30 03:59:57;;;;;;;7.38;2.63;;;;;;;-142.75;100.00;78218.25;5048764;28;20055;-67
2023/05/30 04:02:22;;;;;;;8.65;2.58;;;;;;;-142.75;100.00;78204.47;5048954;28;20020;-66
2023/05/30 04:04:47;;;;;;;14.70;3.17;;;;;;;-142.75;100.00;78192.66;5049238;28;20105;-66
2023/05/30 04:07:12;;;;;;;9.50;2.95;;;;;;;-142.75;100.00;78194.63;5048652;28;20016;-66
2023/05/30 04:09:38;;;;;;;13.73;3.10;;;;;;;-142.75;100.00;78194.63;5047710;28;20077;-67
2023/05/30 04:12:03;;;;;;;13.90;3.33;;;;;;;-142.75;100.00;78182.81;5048841;28;20044;-67
2023/05/30 04:14:29;;;;;;;11.02;3.65;;;;;;;-142.75;100.00;78184.78;5048800;28;20032;-66
2023/05/30 04:16:54;;;;;;;11.43;3.00;;;;;;;-142.75;100.00;78172.94;5048719;28;20159;-66
2023/05/30 04:19:19;;;;;;;16.13;3.40;;;;;;;-142.75;100.00;78180.81;5033187;28;20021;-66
2023/05/30 04:21:45;;;;;;;10.55;2.75;;;;;;;-142.75;100.00;78149.31;5043891;28;20140;-67
2023/05/30 04:24:10;;;;;;;12.50;3.15;;;;;;;-142.75;100.00;78163.09;5028671;28;20515;-66
2023/05/30 04:26:36;;;;;;;10.73;2.92;;;;;;;-142.75;100.00;78157.19;5028735;28;20231;-66
2023/05/30 04:29:01;;;;;;;15.60;3.90;;;;;;;-142.75;100.00;78149.31;5027996;28;20033;-67
2023/05/30 04:31:27;;;;;;;13.75;3.13;;;;;;;-142.75;100.00;78161.13;5028545;28;20017;-66
2023/05/30 04:33:53;;;;;;;16.52;3.80;;;;;;;-142.75;100.00;78165.06;5028551;28;20044;-66
2023/05/30 04:36:19;;;;;;;11.52;3.53;;;;;;;-142.75;100.00;78169.00;5028645;28;20087;-66
2023/05/30 04:38:46;;;;;;;13.55;3.45;;;;;;;-142.75;100.00;78165.06;5028279;28;20052;-66
2023/05/30 04:41:17;;;;;;;7.72;2.83;;;;;;;-142.75;100.00;78157.19;5027866;28;20033;-66
2023/05/30 04:43:44;;;;;;;16.95;2.88;;;;;;;-142.75;100.00;78161.13;5028010;28;20025;-67
2023/05/30 04:46:09;;;;;;;9.60;3.38;;;;;;;-142.75;100.00;78163.09;5026291;28;20108;-66
2023/05/30 04:48:36;;;;;;;7.80;2.72;;;;;;;-142.75;100.00;78161.13;5027752;28;20100;-66
2023/05/30 04:51:02;;;;;;;7.80;3.00;;;;;;;-142.75;100.00;78184.78;5023978;28;20025;-65
2023/05/30 04:53:28;;;;;;;14.10;3.58;;;;;;;-142.75;100.00;78159.16;5026117;28;20026;-66
2023/05/30 04:55:54;;;;;;;11.00;3.25;;;;;;;-142.75;100.00;78153.25;5025693;28;20773;-65
2023/05/30 04:58:19;;;;;;;7.93;3.13;;;;;;;-142.75;100.00;78143.41;5027264;28;20037;-66
2023/05/30 05:00:45;;;;;;;5.38;2.80;;;;;;;-142.75;100.00;78133.56;5026961;28;20040;-66
2023/05/30 05:03:10;;;;;;;9.43;3.55;;;;;;;-142.75;100.00;78133.56;5028154;28;20025;-67
2023/05/30 05:05:35;;;;;;;14.65;3.95;;;;;;;-142.75;100.00;78141.44;5027693;28;20022;-67
2023/05/30 05:08:01;;;;;;;5.90;3.25;;;;;;;-142.75;100.00;78147.34;5027699;28;20061;-67
2023/05/30 05:10:27;;;;;;;10.07;3.15;;;;;;;-142.75;100.00;78137.50;5027552;28;20032;-66
2023/05/30 05:12:53;;;;;;;8.75;3.25;;;;;;;-142.75;100.00;78145.38;5027657;28;20031;-66
2023/05/30 05:15:18;;;;;;;10.45;3.25;;;;;;;-142.75;100.00;78145.38;5027832;28;20017;-65
2023/05/30 05:17:43;;;;;;;12.95;3.30;;;;;;;-142.75;100.00;78153.25;5027616;28;20394;-66
2023/05/30 05:20:10;;;;;;;7.78;2.80;;;;;;;-142.75;100.00;78147.34;5027029;28;20060;-65
2023/05/30 05:22:35;;;;;;;6.28;2.90;;;;;;;-142.75;100.00;78155.22;5026897;28;20021;-66
2023/05/30 05:25:02;;;;;;;9.35;3.30;;;;;;;-142.75;100.00;78157.19;5027470;28;20487;-65
2023/05/30 05:27:27;;;;;;;10.63;3.08;;;;;;;-142.75;100.00;78165.06;5027346;28;20435;-66
2023/05/30 05:29:53;;;;;;;8.93;2.72;;;;;;;-142.75;100.00;78165.06;5027217;28;20102;-65
2023/05/30 05:32:18;;;;;;;7.65;3.20;;;;;;;-142.75;100.00;78161.13;5027797;28;20057;-66
2023/05/30 05:34:44;;;;;;;10.15;3.45;;;;;;;-142.75;100.00;78172.94;5027558;28;20043;-66
2023/05/30 05:37:09;;;;;;;12.07;3.20;;;;;;;-142.75;100.00;78165.06;5027154;28;20115;-66
2023/05/30 05:39:34;;;;;;;11.50;3.58;;;;;;;-142.75;100.00;78161.13;5027002;28;20076;-66
2023/05/30 05:42:01;;;;;;;7.70;2.95;;;;;;;-142.75;100.00;78153.25;5027162;28;20036;-67
2023/05/30 05:44:27;;;;;;;10.98;3.22;;;;;;;-142.75;100.00;78145.38;5027070;28;20029;-66
2023/05/30 05:46:52;;;;;;;9.20;3.05;;;;;;;-142.75;100.00;78137.50;5027093;28;20529;-67
2023/05/30 05:49:18;;;;;;;14.07;3.90;;;;;;;-142.75;100.00;78153.25;5042438;28;20589;-65
2023/05/30 05:51:43;;;;;;;5.38;2.90;;;;;;;-142.75;100.00;78153.25;5026768;28;20021;-66
2023/05/30 05:54:08;;;;;;;9.63;2.83;;;;;;;-142.75;100.00;78129.63;5027016;28;20029;-66
2023/05/30 05:56:34;;;;;;;10.52;3.40;;;;;;;-142.75;100.00;78127.66;5026831;28;20048;-66
2023/05/30 05:58:59;;;;;;;12.48;3.67;;;;;;;-142.75;100.00;78109.94;5027022;28;20553;-66
2023/05/30 06:01:24;;;;;;;12.57;3.95;;;;;;;-142.75;100.00;78107.97;5026643;28;20489;-66
2023/05/30 06:03:50;;;;;;;13.27;3.03;;;;;;;-142.75;100.00;78090.25;5027315;28;20045;-66
2023/05/30 06:06:15;;;;;;;14.15;3.78;;;;;;;-142.75;100.00;78080.41;5041847;28;20018;-65
2023/05/30 06:08:45;;;;;;;7.00;2.90;;;;;;;-142.75;100.00;78076.47;5026734;28;20021;-65
2023/05/30 06:11:10;;;;;;;7.35;3.50;;;;;;;-142.75;100.00;78066.63;5024091;28;20083;-65
2023/05/30 06:13:36;;;;;;;6.00;3.20;;;;;;;-142.75;100.00;78074.50;5027103;28;20029;-66
2023/05/30 06:16:04;;;;;;;9.57;2.83;;;;;;;-142.75;100.00;78066.63;5027736;28;20071;-65
2023/05/30 06:18:29;;;;;;;8.15;2.97;;;;;;;-142.75;100.00;78056.78;5029408;28;20095;-66
2023/05/30 06:20:54;;;;;;;9.75;2.80;;;;;;;-142.75;100.00;78044.94;5028368;28;20025;-64
2023/05/30 06:23:21;;;;;;;12.02;3.20;;;;;;;-142.75;100.00;78035.09;5027756;28;20116;-65
2023/05/30 06:25:46;;;;;;;7.35;2.60;;;;;;;-142.75;100.00;78044.94;5026673;28;20026;-66
2023/05/30 06:28:12;;;;;;;10.55;2.72;;;;;;;-142.75;100.00;78042.97;5026761;28;20041;-64
2023/05/30 06:30:37;;;;;;;13.13;2.97;;;;;;;-142.75;100.00;78039.03;5026579;28;20031;-65
2023/05/30 06:33:03;;;;;;;12.32;3.10;;;;;;;-142.75;100.00;78017.38;5026975;28;20025;-65
2023/05/30 06:35:28;;;;;;;9.98;3.30;;;;;;;-142.75;100.00;78013.44;5027349;28;20124;-66
2023/05/30 06:37:54;;;;;;;7.30;2.92;;;;;;;-142.75;100.00;78003.59;5027911;28;20072;-65
2023/05/30 06:40:19;;;;;;;11.10;2.40;;;;;;;-142.75;100.00;78015.41;5028634;28;20029;-65
2023/05/30 06:42:44;;;;;;;12.15;3.25;;;;;;;-142.75;100.00;77995.72;5028331;28;20045;-65
2023/05/30 06:45:10;;;;;;;8.73;2.80;;;;;;;-142.75;100.00;77991.78;5027721;28;20040;-65
2023/05/30 06:47:35;;;;;;;16.17;2.92;;;;;;;-142.75;100.00;77976.03;5029781;28;20033;-65
2023/05/30 06:50:00;;;;;;;8.70;2.30;;;;;;;-142.75;100.00;77968.16;5025852;28;20494;-65
2023/05/30 06:52:26;;;;;;;9.40;2.75;;;;;;;-142.75;100.00;77997.69;5025134;28;20068;-65
2023/05/30 06:54:51;;;;;;;10.98;2.22;;;;;;;-142.75;100.00;77987.84;5026043;28;20048;-66
2023/05/30 06:57:16;;;;;;;8.27;2.13;;;;;;;-142.75;100.00;77981.94;5026855;28;20022;-66
2023/05/30 06:59:41;;;;;;;9.90;2.05;;;;;;;-142.75;100.00;77968.16;5024594;28;20033;-63
2023/05/30 07:02:07;;;;;;;8.80;2.50;;;;;;;-142.75;100.00;77960.28;5025483;28;20031;-65
2023/05/30 07:04:32;;;;;;;11.07;2.20;;;;;;;-142.75;100.00;77970.13;5025383;28;20071;-66
2023/05/30 07:06:58;;;;;;;6.50;2.30;;;;;;;-142.75;100.00;77956.34;5026624;28;20044;-66
2023/05/30 07:09:23;;;;;;;6.95;2.25;;;;;;;-142.75;100.00;77946.50;5025943;28;20040;-66
2023/05/30 07:11:51;;;;;;;6.97;2.50;;;;;;;-142.75;100.00;77940.59;5041725;28;20483;-66
2023/05/30 07:14:17;;;;;;;11.68;2.38;;;;;;;-142.75;100.00;77956.34;5026406;28;20053;-65
2023/05/30 07:16:42;;;;;;;9.32;2.60;;;;;;;-142.75;100.00;77958.31;5025778;28;20561;-65
2023/05/30 07:19:07;;;;;;;8.60;2.67;;;;;;;-142.75;100.00;77952.41;5041174;28;20017;-66
2023/05/30 07:21:33;;;;;;;7.30;2.72;;;;;;;-142.75;100.00;77940.59;5040964;28;20059;-66
2023/05/30 07:23:58;;;;;;;10.57;2.75;;;;;;;-142.75;100.00;77928.78;5026016;28;20025;-66
2023/05/30 07:26:23;;;;;;;11.15;2.40;;;;;;;-142.75;100.00;77950.44;5025872;28;20053;-65
2023/05/30 07:28:48;;;;;;;9.07;2.17;;;;;;;-142.75;100.00;77948.47;5026161;28;20107;-66
2023/05/30 07:31:15;;;;;;;13.05;2.78;;;;;;;-142.75;100.00;77948.47;5025713;28;20123;-66
2023/05/30 07:33:40;;;;;;;12.70;2.28;;;;;;;-142.75;100.00;77942.56;5025900;28;20026;-66
2023/05/30 07:36:07;;;;;;;11.55;2.38;;;;;;;-142.75;100.00;77928.78;5025920;28;20399;-65
2023/05/30 07:38:33;;;;;;;11.50;3.35;;;;;;;-142.75;100.00;77911.06;5025945;28;20155;-65
2023/05/30 07:40:58;;;;;;;8.77;2.45;;;;;;;-142.75;100.00;77916.97;5025273;28;20104;-66
2023/05/30 07:43:23;;;;;;;8.07;2.55;;;;;;;-142.75;100.00;77901.19;5025997;28;20021;-66
2023/05/30 07:45:48;;;;;;;9.95;2.45;;;;;;;-142.75;100.00;77905.13;5028321;28;20104;-66
2023/05/30 07:48:14;;;;;;;8.13;2.67;;;;;;;-142.75;100.00;77899.22;5028795;28;20398;-67
2023/05/30 07:50:39;;;;;;;13.38;2.78;;;;;;;-142.75;100.00;77891.34;5028520;28;20486;-65
2023/05/30 07:53:05;;;;;;;9.25;2.97;;;;;;;-142.75;100.00;77873.63;5028923;28;20021;-66
2023/05/30 07:55:30;;;;;;;7.13;2.00;;;;;;;-142.75;100.00;77838.19;5028798;28;20056;-66
2023/05/30 07:57:55;;;;;;;12.55;2.78;;;;;;;-142.75;100.00;77826.38;5028521;28;20052;-64
2023/05/30 08:00:21;;;;;;;10.82;2.30;;;;;;;-142.75;100.00;77828.34;5028531;28;20032;-65
2023/05/30 08:02:46;;;;;;;7.47;2.05;;;;;;;-142.75;100.00;77798.81;5029008;28;20022;-67
2023/05/30 08:05:11;;;;;;;10.68;2.22;;;;;;;-142.75;100.00;77767.31;5029012;28;20092;-64
2023/05/30 08:07:37;;;;;;;10.75;2.40;;;;;;;-142.75;100.00;77704.28;5028891;28;20025;-66
2023/05/30 08:10:02;;;;;;;10.25;2.63;;;;;;;-142.75;100.00;77672.78;5028643;28;20525;-65
2023/05/30 08:12:29;;;;;;;11.32;2.50;;;;;;;-142.75;100.00;77678.69;5028237;28;20470;-66
2023/05/30 08:14:55;;;;;;;8.80;2.40;;;;;;;-142.75;100.00;77637.34;5029026;28;20059;-66
2023/05/30 08:17:23;;;;;;;10.70;2.70;;;;;;;-142.75;100.00;77629.47;5029176;28;20045;-66
2023/05/30 08:19:50;;;;;;;6.43;1.95;;;;;;;-142.75;100.00;77635.38;5028932;28;20064;-67
2023/05/30 08:22:15;;;;;;;8.80;1.90;;;;;;;-142.75;100.00;77609.78;5028874;28;20029;-67
2023/05/30 08:24:41;;;;;;;8.80;2.30;;;;;;;-142.75;100.00;77564.50;5028757;28;20652;-67
2023/05/30 08:27:07;;;;;;;8.15;2.28;;;;;;;-142.75;100.00;77542.84;5028747;28;20079;-67
2023/05/30 08:29:33;;;;;;;8.10;2.17;;;;;;;-142.75;100.00;77538.91;5028530;28;20074;-67
2023/05/30 08:31:58;;;;;;;11.88;2.53;;;;;;;-142.75;100.00;77538.91;5028419;28;20037;-66
2023/05/30 08:34:24;;;;;;;8.25;2.17;;;;;;;-142.75;100.00;77546.78;5028569;28;20176;-67
2023/05/30 08:36:52;;;;;;;8.45;2.05;;;;;;;-142.75;100.00;77533.00;5028610;28;20026;-67
2023/05/30 08:39:18;;;;;;;7.28;2.25;;;;;;;-142.75;100.00;77513.31;5028045;28;20029;-67
2023/05/30 08:41:44;;;;;;;9.35;2.25;;;;;;;-142.75;100.00;77466.03;5024230;28;20558;-67
2023/05/30 08:44:09;;;;;;;5.43;2.28;;;;;;;-142.75;100.00;77444.38;5028560;28;20121;-67
2023/05/30 08:46:38;;;;;;;6.50;2.47;;;;;;;-142.75;100.00;77452.25;5028407;28;20117;-67
2023/05/30 08:49:06;;;;;;;8.57;3.00;;;;;;;-142.75;100.00;77440.44;5028852;28;20562;-67
2023/05/30 08:51:36;;;;;;;10.93;2.55;;;;;;;-142.75;100.00;77412.88;5028164;28;20039;-67
2023/05/30 08:54:03;;;;;;;11.43;2.50;;;;;;;-142.75;100.00;77389.25;5028096;28;20041;-67
2023/05/30 08:56:32;;;;;;;7.00;2.25;;;;;;;-142.75;100.00;77375.47;5027526;28;20029;-68
2023/05/30 08:59:00;;;;;;;8.75;2.42;;;;;;;-142.75;99.50;77365.63;5027595;28;20076;-67
2023/05/30 09:01:26;;;;;;;8.18;2.03;;;;;;;-142.75;95.69;77353.81;5026938;28;20026;-67
2023/05/30 09:03:52;;;;;;;8.95;2.72;;;;;;;-142.75;97.95;77342.00;5027194;28;20025;-66
2023/05/30 09:06:18;;;;;;;11.95;2.60;;;;;;;-142.75;98.57;77375.47;5029368;28;20029;-67
2023/05/30 09:08:45;;;;;;;14.90;2.72;;;;;;;-142.75;100.00;77349.88;5027254;28;20040;-67
2023/05/30 09:11:13;;;;;;;9.00;3.10;;;;;;;-142.75;100.00;77286.88;5042564;28;20025;-68
2023/05/30 09:13:40;;;;;;;5.22;2.20;;;;;;;-142.75;96.07;77326.25;5027463;28;20033;-68
2023/05/30 09:16:05;;;;;;;11.52;2.55;;;;;;;-142.75;100.00;77294.75;5025881;28;20406;-68
2023/05/30 09:18:34;;;;;;;7.88;2.60;;;;;;;-142.75;98.38;77290.81;5026905;28;20021;-67
2023/05/30 09:21:00;;;;;;;6.90;2.13;;;;;;;-142.75;96.68;77296.72;5027079;28;20095;-67
2023/05/30 09:23:26;;;;;;;7.20;2.38;;;;;;;-142.75;93.03;77314.44;5027163;28;20021;-66
2023/05/30 09:25:51;;;;;;;6.75;2.53;;;;;;;-142.75;92.65;77277.03;5027065;28;20442;-68
2023/05/30 09:28:28;;;;;;;10.15;2.15;;;;;;;-142.75;94.36;77263.25;5027075;28;20055;-67
2023/05/30 09:30:57;;;;;;;;;;;;;;;-142.75;93.47;77251.44;5027146;28;20025;-67
2023/05/30 09:33:23;;;;;;;7.88;2.50;;;;;;;-142.75;94.39;77212.06;5026756;28;19912;-65
2023/05/30 09:35:59;;;;;;;8.73;2.40;;;;;;;-142.75;96.88;77192.38;5030789;28;20086;-67
2023/05/30 09:38:25;;;;;;;9.93;2.40;;;;;;;-142.75;92.22;77239.63;5038475;28;20036;-67
2023/05/30 09:40:55;;;;;;;9.32;2.38;;;;;;;-142.75;91.22;77202.22;5026555;28;20113;-67
2023/05/30 09:43:34;;;;;;;13.43;2.95;;;;;;;-142.75;91.88;77182.53;5026764;28;20029;-66
2023/05/30 09:46:04;;;;;;;10.35;2.33;;;;;;;-142.75;89.39;77172.69;5027020;28;20415;-68
2023/05/30 09:48:30;;;;;;;10.70;2.53;;;;;;;-142.75;94.16;77170.72;5026575;28;20025;-67
2023/05/30 09:51:02;;;;;;;7.43;2.40;;;;;;;-142.75;93.40;77123.47;5026280;28;20022;-66
2023/05/30 09:53:33;;;;;;;11.73;2.60;;;;;;;-142.75;91.02;77105.75;5026129;28;20115;-67
2023/05/30 09:56:01;;;;;;;5.45;1.88;;;;;;;-142.75;89.42;77117.56;5026487;28;20803;-68
2023/05/30 09:58:26;;;;;;;8.30;2.83;;;;;;;-142.75;87.80;77143.16;5026208;28;20021;-68
2023/05/30 10:00:54;;;;;;;9.38;2.83;;;;;;;-142.75;93.58;77156.94;5026305;28;20079;-67
2023/05/30 10:03:21;;;;;;;6.47;2.10;;;;;;;-142.75;89.68;77149.06;5025372;28;20026;-68
2023/05/30 10:05:47;;;;;;;7.35;2.30;;;;;;;-142.75;91.03;77101.81;5025948;28;20021;-67
2023/05/30 10:08:13;;;;;;;7.70;2.70;;;;;;;-142.75;90.72;77117.56;5025681;28;20079;-67
2023/05/30 10:10:40;;;;;;;7.15;2.00;;;;;;;-142.75;89.94;77101.81;5025849;28;20545;-68
2023/05/30 10:13:05;;;;;;;7.68;2.47;;;;;;;-142.75;93.58;77105.75;5026103;28;20039;-67
2023/05/30 10:15:31;;;;;;;7.82;2.20;;;;;;;-142.75;91.20;77088.03;5026639;28;20390;-67
2023/05/30 10:18:05;;;;;;;6.10;2.40;;;;;;;-142.75;89.61;77088.03;5026043;28;20055;-68
2023/05/30 10:20:31;;;;;;;7.18;2.30;;;;;;;-142.75;90.52;77121.50;5025307;28;20086;-68
2023/05/30 10:22:58;;;;;;;8.63;2.67;;;;;;;-142.75;88.95;77109.69;5026159;28;20085;-68
2023/05/30 10:25:30;;;;;;;8.00;2.72;;;;;;;-142.75;87.12;77078.19;5025738;28;20029;-67
2023/05/30 10:27:57;;;;;;;9.35;2.33;;;;;;;-142.75;90.56;77070.31;5037269;28;20025;-67
2023/05/30 10:30:27;;;;;;;10.50;2.35;;;;;;;-142.75;85.81;77082.13;5025633;28;20021;-65
2023/05/30 10:33:06;;;;;;;5.55;2.03;;;;;;;-142.75;86.56;77070.31;5038587;28;20024;-66
2023/05/30 10:35:33;;;;;;;7.53;2.28;;;;;;;-142.75;84.32;77133.31;5026108;28;20029;-68
2023/05/30 10:37:59;;;;;;;6.07;1.85;;;;;;;-142.75;86.50;77109.69;5025961;28;20072;-67
2023/05/30 10:40:30;;;;;;;6.63;2.58;;;;;;;-142.75;88.50;77097.88;5025446;28;20030;-67
2023/05/30 10:43:06;;;;;;;5.25;2.13;;;;;;;-142.75;93.61;77101.81;5041058;28;20033;-67
2023/05/30 10:45:56;;;;;;;7.90;2.47;;;;;;;-142.75;88.59;77123.47;5025963;28;20022;-67
2023/05/30 10:48:29;;;;;;;6.40;2.33;;;;;;;-142.75;86.93;77172.69;5025732;28;20641;-67
2023/05/30 10:50:59;;;;;;;5.53;2.03;;;;;;;-142.75;96.90;77151.03;5025540;28;20040;-68
2023/05/30 10:53:26;;;;;;;3.58;1.80;;;;;;;-142.75;93.31;77113.63;5040852;28;20402;-66
2023/05/30 10:55:51;;;;;;;5.15;2.17;;;;;;;-142.75;93.89;77105.75;5025776;28;20021;-68
2023/05/30 10:58:41;;;;;;;6.93;2.10;;;;;;;-142.75;93.53;77090.00;5025673;28;20033;-68
2023/05/30 11:01:27;;;;;;;5.28;2.33;;;;;;;-142.75;97.56;77127.41;5025503;28;20117;-68
2023/05/30 11:04:06;;;;;;;6.25;2.30;;;;;;;-142.75;100.00;77113.63;5025656;28;20018;-67
2023/05/30 11:06:45;;;;;;;4.20;2.38;;;;;;;-142.75;100.00;77101.81;5025565;28;20062;-68